Time;durP1;ratioP1;P1;durP2;ratioP2;P2;SDS_P1;SDS_P2;PMS_P1;PMS_P2;Temp;Humidity;BMP_temperature;BMP_pressure;BME280_temperature;BME280_humidity;BME280_pressure;Samples;Min_cycle;Max_cycle;Signal;HPM_P1;HPM_P2
2022/01/24 00:01:51;;;;;;;2.00;1.90;;;22.20;43.40;;;;;;4962005;28;20188;-70
2022/01/24 00:04:17;;;;;;;2.33;2.13;;;22.20;43.40;;;;;;4961771;28;20181;-70
2022/01/24 00:06:43;;;;;;;2.70;2.50;;;22.20;43.40;;;;;;4961974;28;20239;-70
2022/01/24 00:09:10;;;;;;;2.40;2.20;;;22.20;43.40;;;;;;4961554;28;20263;-70
2022/01/24 00:11:47;;;;;;;2.10;1.90;;;22.20;43.40;;;;;;4977758;28;20220;-70
2022/01/24 00:14:49;;;;;;;2.08;1.98;;;22.20;43.40;;;;;;4977643;28;20184;-70
2022/01/24 00:17:17;;;;;;;1.60;1.50;;;22.20;43.40;;;;;;4994860;28;20200;-70
2022/01/24 00:27:56;;;;;;;2.10;2.00;;;22.20;43.40;;;;;;4994882;28;20205;-70
2022/01/24 00:30:22;;;;;;;1.90;1.80;;;22.20;43.40;;;;;;4993561;28;20213;-70
2022/01/24 00:32:48;;;;;;;1.90;1.80;;;22.20;43.40;;;;;;4993682;28;20207;-71
2022/01/24 00:35:13;;;;;;;1.90;1.80;;;22.20;43.40;;;;;;4977076;28;20193;-71
2022/01/24 00:37:39;;;;;;;2.55;2.35;;;22.20;43.40;;;;;;4993341;28;20226;-70
2022/01/24 00:40:07;;;;;;;2.30;2.10;;;22.20;43.40;;;;;;4993301;28;20192;-70
2022/01/24 00:55:45;;;;;;;2.95;1.95;;;22.20;43.40;;;;;;4996077;28;20184;-68
2022/01/24 00:58:11;;;;;;;1.95;1.80;;;22.20;43.40;;;;;;4993040;28;20197;-68
2022/01/24 01:00:37;;;;;;;2.08;1.92;;;22.20;43.40;;;;;;4992993;28;20198;-68
2022/01/24 01:03:03;;;;;;;1.90;1.70;;;22.20;43.40;;;;;;4976768;28;20218;-68
2022/01/24 01:08:12;;;;;;;2.00;1.90;;;22.20;43.40;;;;;;4992726;28;20184;-67
2022/01/24 01:18:53;;;;;;;1.73;1.42;;;22.20;43.40;;;;;;4992916;28;20213;-68
2022/01/24 01:21:19;;;;;;;1.60;1.50;;;22.20;43.40;;;;;;4992875;28;20191;-68
2022/01/24 01:23:51;;;;;;;1.77;1.67;;;22.20;43.40;;;;;;4976404;28;20193;-68
2022/01/24 01:28:51;;;;;;;2.00;1.90;;;22.10;43.30;;;;;;4992704;28;20672;-68
2022/01/24 01:31:34;;;;;;;2.22;2.03;;;22.20;43.40;;;;;;4992000;28;20305;-67
2022/01/24 01:34:12;;;;;;;1.85;1.73;;;22.10;43.40;;;;;;4993363;28;20183;-68
2022/01/24 01:37:03;;;;;;;1.80;1.70;;;22.10;43.30;;;;;;4992223;28;20211;-68
2022/01/24 01:53:54;;;;;;;1.83;1.73;;;22.20;43.40;;;;;;4993462;28;20256;-68
2022/01/24 01:55:46;;;;;;;1.85;1.75;;;22.10;43.30;;;;;;5000303;28;20215;-67
2022/01/24 01:58:16;;;;;;;1.80;1.65;;;22.10;43.30;;;;;;4991947;28;20201;-68
2022/01/24 02:00:53;;;;;;;1.95;1.85;;;22.20;43.40;;;;;;4993481;28;20177;-68
2022/01/24 02:03:20;;;;;;;1.55;1.45;;;22.10;43.30;;;;;;4992350;28;20346;-68
2022/01/24 02:05:46;;;;;;;1.65;1.55;;;22.10;43.30;;;;;;4991616;28;20276;-68
2022/01/24 02:08:12;;;;;;;1.73;1.63;;;22.10;43.30;;;;;;4991901;28;20230;-68
2022/01/24 02:10:40;;;;;;;2.17;1.98;;;22.20;43.40;;;;;;5008574;28;20208;-68
2022/01/24 02:13:08;;;;;;;2.28;2.17;;;22.10;43.30;;;;;;4991925;28;20189;-68
2022/01/24 02:15:53;;;;;;;2.03;1.92;;;22.20;43.40;;;;;;5011095;28;20192;-68
2022/01/24 02:25:57;;;;;;;1.70;1.60;;;22.10;43.30;;;;;;5012349;28;20195;-66
2022/01/24 02:28:26;;;;;;;1.50;1.40;;;22.10;43.30;;;;;;4978871;28;20219;-69
2022/01/24 02:31:06;;;;;;;1.65;1.55;;;22.10;43.30;;;;;;4978936;28;20679;-68
2022/01/24 02:33:32;;;;;;;1.60;1.50;;;22.10;43.30;;;;;;5012499;28;20168;-68
2022/01/24 02:35:59;;;;;;;1.60;1.50;;;22.10;43.30;;;;;;4994665;28;20261;-68
2022/01/24 02:49:12;;;;;;;1.55;1.42;;;22.10;43.90;;;;;;4998707;28;20211;-68
2022/01/24 02:51:47;;;;;;;1.60;1.50;;;22.10;43.30;;;;;;5015238;28;20211;-68
2022/01/24 02:54:28;;;;;;;1.52;1.42;;;22.10;43.30;;;;;;4982247;28;20187;-69
2022/01/24 02:56:54;;;;;;;1.58;1.48;;;22.10;43.30;;;;;;4982472;28;20172;-68
2022/01/24 02:59:20;;;;;;;1.60;1.50;;;22.10;43.30;;;;;;5014906;28;20233;-68
2022/01/24 03:01:46;;;;;;;1.65;1.55;;;22.10;43.30;;;;;;4982339;28;20172;-68
2022/01/24 03:04:13;;;;;;;1.65;1.55;;;22.10;43.30;;;;;;5015900;28;20263;-68
2022/01/24 03:06:39;;;;;;;2.17;1.70;;;22.10;43.30;;;;;;5014539;28;20278;-68
2022/01/24 03:09:06;;;;;;;1.77;1.67;;;22.10;43.30;;;;;;5014656;28;20654;-68
2022/01/24 03:12:01;;;;;;;1.60;1.50;;;22.10;43.30;;;;;;5015794;28;20221;-68
2022/01/24 03:14:31;;;;;;;1.70;1.60;;;22.10;43.30;;;;;;5014779;28;20176;-68
2022/01/24 03:16:57;;;;;;;1.60;1.50;;;22.10;43.30;;;;;;4998274;28;20184;-68
2022/01/24 03:19:24;;;;;;;1.70;1.60;;;22.10;43.30;;;;;;4998255;28;20675;-68
2022/01/24 03:21:50;;;;;;;1.38;1.27;;;22.10;43.30;;;;;;5015737;28;20199;-68
2022/01/24 03:24:15;;;;;;;1.52;1.42;;;22.10;43.30;;;;;;4995270;28;20200;-68
2022/01/24 03:26:42;;;;;;;1.60;1.50;;;22.10;43.30;;;;;;4978274;28;20193;-68
2022/01/24 03:29:08;;;;;;;1.40;1.30;;;22.10;43.30;;;;;;4962631;28;20216;-68
2022/01/24 03:31:36;;;;;;;1.60;1.50;;;22.10;43.30;;;;;;4962522;28;20212;-68
2022/01/24 03:34:02;;;;;;;1.10;1.10;;;22.10;43.30;;;;;;4994482;28;20201;-68
2022/01/24 03:36:29;;;;;;;1.75;1.65;;;22.10;43.30;;;;;;4962124;28;20191;-68
2022/01/24 03:38:55;;;;;;;1.35;1.25;;;22.10;43.30;;;;;;4978224;28;20209;-68
2022/01/24 03:41:21;;;;;;;1.45;1.35;;;22.10;43.30;;;;;;4995775;28;20264;-68
2022/01/24 03:43:47;;;;;;;1.27;1.27;;;22.10;43.30;;;;;;4994533;28;20234;-68
2022/01/24 03:48:52;;;;;;;1.77;1.67;;;22.10;43.30;;;;;;4997691;28;20231;-68
2022/01/24 03:51:22;;;;;;;1.77;1.67;;;22.10;43.30;;;;;;4981323;28;20207;-68
2022/01/24 03:53:48;;;;;;;1.83;1.73;;;22.10;43.30;;;;;;4997303;28;20192;-68
2022/01/24 03:56:15;;;;;;;1.63;1.52;;;22.10;43.30;;;;;;4980989;28;20184;-68
2022/01/24 03:58:43;;;;;;;1.60;1.50;;;22.10;43.30;;;;;;4997501;28;20267;-68
2022/01/24 04:01:10;;;;;;;2.05;1.90;;;22.10;43.30;;;;;;4997355;28;20207;-68
2022/01/24 04:03:38;;;;;;;1.58;1.48;;;22.10;43.30;;;;;;4981254;28;20184;-68
2022/01/24 04:06:06;;;;;;;1.30;1.20;;;22.10;43.30;;;;;;4981034;28;20184;-68
2022/01/24 04:08:32;;;;;;;1.50;1.40;;;22.00;43.20;;;;;;4980907;28;20201;-69
2022/01/24 04:10:59;;;;;;;1.70;1.60;;;22.10;43.30;;;;;;4997301;28;20212;-68
2022/01/24 04:18:49;;;;;;;1.60;1.50;;;22.10;43.30;;;;;;4996985;28;20294;-68
2022/01/24 04:24:00;;;;;;;1.75;1.65;;;22.10;43.30;;;;;;4997026;28;20234;-68
2022/01/24 04:26:27;;;;;;;1.55;1.45;;;22.10;43.30;;;;;;4996797;28;20176;-68
2022/01/24 04:28:53;;;;;;;2.33;2.17;;;22.10;43.30;;;;;;4980806;28;20212;-68
2022/01/24 04:31:19;;;;;;;1.70;1.60;;;22.10;43.30;;;;;;4996880;28;20202;-68
2022/01/24 04:33:46;;;;;;;1.65;1.55;;;22.00;43.20;;;;;;4971324;28;20283;-68
2022/01/24 04:36:12;;;;;;;2.22;1.70;;;22.00;43.20;;;;;;4993414;28;20173;-68
2022/01/24 04:38:37;;;;;;;1.70;1.60;;;22.10;43.30;;;;;;4994609;28;20200;-68
2022/01/24 04:41:12;;;;;;;1.95;1.85;;;22.10;43.30;;;;;;4977089;28;20187;-68
2022/01/24 04:51:32;;;;;;;1.77;1.67;;;22.10;43.30;;;;;;4976989;28;20208;-68
2022/01/24 04:56:42;;;;;;;1.85;1.75;;;22.10;43.30;;;;;;4976981;28;20176;-67
2022/01/24 04:59:09;;;;;;;1.90;1.80;;;22.00;43.20;;;;;;4977058;28;20280;-68
2022/01/24 05:01:35;;;;;;;2.47;2.28;;;22.00;43.20;;;;;;4993080;28;20181;-68
2022/01/24 05:04:02;;;;;;;1.95;1.85;;;22.00;43.20;;;;;;4976907;28;20707;-69
2022/01/24 05:06:28;;;;;;;2.63;2.17;;;22.00;43.20;;;;;;4992176;28;20196;-68
2022/01/24 05:08:53;;;;;;;2.20;2.00;;;22.00;43.20;;;;;;4976414;28;20208;-68
2022/01/24 05:11:31;;;;;;;2.53;2.00;;;22.00;43.20;;;;;;4993722;28;20213;-68
2022/01/24 05:24:38;;;;;;;2.35;2.15;;;22.00;43.20;;;;;;4993937;28;20181;-68
2022/01/24 05:27:05;;;;;;;1.83;1.73;;;22.00;43.20;;;;;;4960212;28;20181;-68
2022/01/24 05:29:31;;;;;;;1.75;1.65;;;22.00;43.20;;;;;;4960485;28;20211;-68
2022/01/24 05:31:56;;;;;;;2.40;2.20;;;22.00;43.20;;;;;;4976215;28;20213;-66
2022/01/24 05:34:23;;;;;;;2.00;1.90;;;22.00;43.20;;;;;;4976092;28;20251;-67
2022/01/24 05:36:50;;;;;;;2.10;2.00;;;22.00;43.20;;;;;;4960059;28;20188;-68
2022/01/24 05:39:16;;;;;;;2.42;2.22;;;22.00;43.20;;;;;;5003413;28;20203;-68
2022/01/24 05:41:42;;;;;;;2.00;1.80;;;22.00;43.20;;;;;;4979605;28;20216;-68
2022/01/24 05:44:09;;;;;;;1.92;1.83;;;22.00;43.20;;;;;;4979193;28;20227;-68
2022/01/24 05:46:35;;;;;;;1.50;1.40;;;22.00;43.20;;;;;;4978996;28;20216;-68
2022/01/24 05:49:02;;;;;;;2.22;1.58;;;22.00;43.20;;;;;;4995576;28;20298;-68
2022/01/24 05:51:29;;;;;;;2.00;1.90;;;22.00;43.20;;;;;;4979463;28;20230;-68
2022/01/24 05:53:56;;;;;;;1.50;1.40;;;22.00;43.20;;;;;;4995429;28;20188;-68
2022/01/24 05:56:23;;;;;;;1.73;1.63;;;22.00;43.20;;;;;;4979222;28;20238;-68
2022/01/24 05:58:49;;;;;;;1.50;1.40;;;22.00;43.20;;;;;;4979189;28;20208;-68
2022/01/24 06:01:14;;;;;;;1.73;1.63;;;22.00;43.20;;;;;;5011558;28;20250;-68
2022/01/24 06:03:40;;;;;;;1.80;1.70;;;22.00;43.20;;;;;;4979044;28;20198;-68
2022/01/24 06:06:08;;;;;;;1.80;1.70;;;22.00;43.20;;;;;;4994977;28;20203;-65
2022/01/24 06:08:35;;;;;;;1.75;1.65;;;22.00;43.20;;;;;;4995446;28;20208;-68
2022/01/24 06:11:01;;;;;;;1.92;1.83;;;22.00;43.20;;;;;;4995232;28;20269;-68
2022/01/24 06:13:28;;;;;;;2.08;1.98;;;22.00;43.20;;;;;;4995076;28;20184;-68
2022/01/24 06:15:54;;;;;;;2.28;2.10;;;22.00;43.20;;;;;;5012178;28;20215;-66
2022/01/24 06:18:20;;;;;;;2.40;2.20;;;22.00;43.20;;;;;;5012443;28;20237;-69
2022/01/24 06:20:47;;;;;;;2.03;1.92;;;22.00;43.20;;;;;;4978816;28;20219;-68
2022/01/24 06:23:16;;;;;;;2.65;2.25;;;22.00;43.20;;;;;;4979236;28;20191;-68
2022/01/24 06:25:43;;;;;;;2.22;2.13;;;22.00;43.20;;;;;;4995081;28;20260;-68
2022/01/24 06:28:10;;;;;;;2.20;2.00;;;22.00;43.20;;;;;;4994980;28;20270;-68
2022/01/24 06:30:36;;;;;;;1.90;1.80;;;22.00;43.20;;;;;;4994885;28;20306;-68
2022/01/24 06:33:02;;;;;;;2.15;2.05;;;22.00;43.20;;;;;;4995010;28;20188;-69
2022/01/24 06:35:28;;;;;;;1.80;1.70;;;22.00;43.90;;;;;;4994877;28;20184;-68
2022/01/24 06:37:53;;;;;;;2.05;1.80;;;22.00;43.20;;;;;;4978647;28;20190;-67
2022/01/24 06:40:19;;;;;;;2.17;1.80;;;22.00;43.20;;;;;;4994922;28;20187;-68
2022/01/24 06:42:45;;;;;;;1.88;1.77;;;22.00;43.20;;;;;;4994920;28;20551;-68
2022/01/24 06:45:11;;;;;;;1.80;1.70;;;22.00;43.20;;;;;;5011167;28;20180;-68
2022/01/24 06:47:40;;;;;;;1.60;1.50;;;22.00;43.20;;;;;;4978852;28;20192;-68
2022/01/24 06:50:06;;;;;;;1.60;1.50;;;22.00;43.20;;;;;;4978834;28;20183;-68
2022/01/24 06:52:32;;;;;;;1.67;1.58;;;21.90;43.20;;;;;;5011007;28;20204;-68
2022/01/24 06:54:57;;;;;;;1.73;1.63;;;22.00;43.20;;;;;;4994764;28;20189;-68
2022/01/24 06:57:24;;;;;;;1.67;1.58;;;22.00;43.20;;;;;;4995102;28;20188;-68
2022/01/24 06:59:50;;;;;;;1.65;1.55;;;22.00;43.20;;;;;;4978864;28;20200;-68
2022/01/24 07:02:16;;;;;;;1.80;1.70;;;22.00;43.20;;;;;;5011065;28;20184;-67
2022/01/24 07:04:44;;;;;;;1.85;1.75;;;22.00;43.20;;;;;;4978170;28;20184;-68
2022/01/24 07:07:12;;;;;;;1.80;1.70;;;22.00;43.20;;;;;;4962793;28;20232;-68
2022/01/24 07:09:39;;;;;;;2.00;1.90;;;22.00;43.20;;;;;;4992095;28;20209;-68
2022/01/24 07:12:07;;;;;;;2.30;2.10;;;22.00;43.20;;;;;;4959463;28;20201;-68
2022/01/24 07:14:32;;;;;;;2.20;2.10;;;22.00;43.20;;;;;;5006694;22;20296;-69
2022/01/24 07:19:30;;;;;;;1.95;1.85;;;22.00;43.20;;;;;;5025557;28;20192;-69
2022/01/24 07:21:59;;;;;;;1.85;1.75;;;22.00;43.20;;;;;;4978602;28;20188;-69
2022/01/24 07:24:26;;;;;;;2.28;2.08;;;22.00;43.20;;;;;;4985955;28;20212;-69
2022/01/24 07:26:52;;;;;;;1.98;1.88;;;22.00;43.20;;;;;;5004894;28;20203;-69
2022/01/24 07:29:18;;;;;;;1.83;1.73;;;22.00;43.20;;;;;;5001146;28;20198;-68
2022/01/24 07:31:46;;;;;;;1.80;1.70;;;22.00;43.20;;;;;;5001207;28;20223;-68
2022/01/24 07:34:13;;;;;;;1.85;1.75;;;22.00;43.20;;;;;;5017436;28;20642;-68
2022/01/24 07:36:39;;;;;;;1.67;1.52;;;22.00;43.20;;;;;;5000987;28;20225;-68
2022/01/24 07:39:05;;;;;;;1.80;1.70;;;22.00;43.20;;;;;;5000794;28;20214;-69
2022/01/24 07:41:33;;;;;;;1.90;1.80;;;22.00;43.20;;;;;;5017531;28;20182;-68
2022/01/24 07:44:00;;;;;;;1.70;1.60;;;22.00;43.20;;;;;;5034875;28;20186;-68
2022/01/24 07:46:28;;;;;;;1.80;1.70;;;22.00;43.20;;;;;;5017210;28;20179;-68
2022/01/24 07:48:54;;;;;;;1.70;1.60;;;22.00;43.20;;;;;;4999076;28;20281;-68
2022/01/24 07:51:20;;;;;;;1.95;1.85;;;22.00;43.20;;;;;;4981227;28;20251;-68
2022/01/24 07:53:46;;;;;;;1.70;1.60;;;22.00;43.20;;;;;;5015320;28;20181;-69
2022/01/24 07:56:12;;;;;;;1.80;1.70;;;22.00;43.20;;;;;;4999070;28;20283;-69
2022/01/24 07:58:40;;;;;;;2.20;2.10;;;22.00;43.20;;;;;;4984578;28;20183;-69
2022/01/24 08:01:06;;;;;;;2.50;2.30;;;22.00;43.20;;;;;;5017693;28;20187;-68
2022/01/24 08:03:32;;;;;;;2.30;2.20;;;22.00;43.20;;;;;;4981354;28;20195;-68
2022/01/24 08:05:58;;;;;;;1.80;1.70;;;22.00;43.20;;;;;;4988707;28;20203;-68
2022/01/24 08:08:24;;;;;;;2.15;2.05;;;22.00;43.20;;;;;;5016784;28;20187;-68
2022/01/24 08:10:50;;;;;;;1.80;1.70;;;22.00;43.20;;;;;;4996890;28;20207;-69
2022/01/24 08:13:15;;;;;;;2.20;2.10;;;22.00;43.20;;;;;;5000122;28;20237;-69
2022/01/24 08:15:41;;;;;;;2.22;2.13;;;22.00;43.20;;;;;;4999895;28;20219;-69
2022/01/24 08:18:07;;;;;;;2.10;2.00;;;22.00;43.20;;;;;;4995777;28;20180;-69
2022/01/24 08:20:33;;;;;;;1.90;1.80;;;22.00;43.20;;;;;;4995687;28;20188;-68
2022/01/24 08:23:00;;;;;;;1.70;1.60;;;22.00;43.20;;;;;;5016654;28;20194;-68
2022/01/24 08:25:26;;;;;;;1.70;1.60;;;22.00;43.20;;;;;;5016146;28;20230;-69
2022/01/24 08:27:53;;;;;;;1.67;1.58;;;22.00;43.20;;;;;;5016627;28;20183;-69
2022/01/24 08:30:23;;;;;;;1.77;1.67;;;22.00;43.20;;;;;;4986682;28;20250;-68
2022/01/24 08:32:49;;;;;;;1.70;1.60;;;22.00;43.20;;;;;;4980511;28;20199;-69
2022/01/24 08:35:19;;;;;;;1.90;1.80;;;22.00;43.20;;;;;;5004412;28;20195;-68
2022/01/24 08:37:46;;;;;;;1.50;1.40;;;22.00;43.20;;;;;;5016361;28;20190;-68
2022/01/24 08:40:21;;;;;;;1.63;1.52;;;22.00;43.20;;;;;;5015095;28;20226;-69
2022/01/24 08:43:00;;;;;;;1.60;1.50;;;22.00;43.20;;;;;;5033943;28;20167;-69
2022/01/24 08:48:29;;;;;;;1.83;1.73;;;22.00;43.20;;;;;;5012483;28;20287;-68
2022/01/24 08:50:56;;;;;;;2.05;1.95;;;22.00;43.20;;;;;;4997683;28;20215;-68
2022/01/24 08:53:23;;;;;;;1.40;1.30;;;22.00;43.10;;;;;;5014227;28;20200;-69
2022/01/24 08:55:50;;;;;;;1.80;1.70;;;22.00;43.20;;;;;;4996622;28;20209;-69
2022/01/24 08:58:18;;;;;;;1.70;1.60;;;22.00;43.90;;;;;;4995712;28;20184;-68
2022/01/24 09:00:45;;;;;;;1.45;1.35;;;22.00;43.20;;;;;;4996473;28;20667;-68
2022/01/24 09:03:13;;;;;;;1.50;1.40;;;22.00;43.20;;;;;;4979981;28;20259;-69
2022/01/24 09:05:40;;;;;;;1.35;1.27;;;22.00;43.20;;;;;;5013366;28;20195;-68
2022/01/24 09:08:07;;;;;;;1.60;1.50;;;22.00;43.20;;;;;;4996308;28;20188;-69
2022/01/24 09:10:38;;;;;;;1.55;1.45;;;22.00;43.20;;;;;;4996060;28;20199;-69
2022/01/24 09:13:04;;;;;;;1.58;1.48;;;22.00;43.20;;;;;;4996275;28;20199;-68
2022/01/24 09:15:30;;;;;;;1.42;1.40;;;22.00;43.20;;;;;;5013316;28;20212;-69
2022/01/24 09:17:56;;;;;;;1.45;1.35;;;22.00;43.20;;;;;;4995718;28;20199;-69
2022/01/24 09:20:22;;;;;;;1.77;1.67;;;22.00;43.20;;;;;;4996284;28;20235;-68
2022/01/24 09:22:49;;;;;;;1.80;1.70;;;22.00;43.20;;;;;;4996246;28;20180;-68
2022/01/24 09:25:19;;;;;;;1.92;1.83;;;22.00;43.20;;;;;;5015201;28;20210;-68
2022/01/24 09:27:46;;;;;;;3.00;1.70;;;22.00;43.20;;;;;;4999108;28;20183;-68
2022/01/24 09:30:16;;;;;;;1.60;1.50;;;22.00;43.20;;;;;;4999410;28;20195;-68
2022/01/24 09:32:42;;;;;;;1.60;1.50;;;22.00;43.20;;;;;;5014882;28;20203;-68
2022/01/24 09:35:11;;;;;;;2.00;1.90;;;22.00;43.20;;;;;;4994440;28;20208;-68
2022/01/24 09:37:39;;;;;;;1.80;1.70;;;22.00;43.10;;;;;;4995902;28;20176;-69
2022/01/24 09:40:07;;;;;;;1.50;1.40;;;22.00;43.20;;;;;;4979660;28;20214;-68
2022/01/24 09:42:34;;;;;;;1.52;1.42;;;22.00;43.20;;;;;;5012956;28;20214;-69
2022/01/24 09:45:00;;;;;;;1.20;1.17;;;22.00;43.20;;;;;;5012761;28;20262;-69
2022/01/24 09:47:27;;;;;;;1.60;1.50;;;22.00;43.20;;;;;;4979255;28;20202;-68
2022/01/24 09:49:53;;;;;;;1.40;1.30;;;22.00;43.20;;;;;;4995491;28;20258;-68
2022/01/24 09:52:19;;;;;;;1.60;1.50;;;22.00;43.20;;;;;;4979174;28;20204;-68
2022/01/24 09:54:45;;;;;;;1.50;1.40;;;22.00;43.20;;;;;;5030342;28;20207;-68
2022/01/24 09:57:10;;;;;;;1.35;1.25;;;22.00;43.20;;;;;;5032599;28;20191;-68
2022/01/24 09:59:37;;;;;;;1.42;1.33;;;22.10;43.20;;;;;;4998550;28;20180;-68
2022/01/24 10:02:03;;;;;;;1.58;1.48;;;22.10;43.20;;;;;;5015056;28;20670;-68
2022/01/24 10:04:30;;;;;;;1.80;1.70;;;22.10;43.20;;;;;;4998350;28;20302;-68
2022/01/24 10:07:12;;;;;;;1.48;1.38;;;22.10;43.20;;;;;;5015011;28;20218;-68
2022/01/24 10:09:42;;;;;;;1.80;1.70;;;22.10;43.30;;;;;;5014957;28;20658;-68
2022/01/24 10:17:52;;;;;;;1.40;1.30;;;22.10;43.30;;;;;;5012703;28;20269;-68
2022/01/24 10:20:28;;;;;;;1.35;1.25;;;22.10;43.10;;;;;;4994846;28;20227;-68
2022/01/24 10:23:26;;;;;;;1.85;1.75;;;22.10;43.00;;;;;;5012416;28;20184;-69
2022/01/24 10:26:04;;;;;;;1.60;1.50;;;22.10;43.00;;;;;;4994924;28;20340;-69
2022/01/24 10:28:44;;;;;;;1.98;1.88;;;22.10;43.10;;;;;;4995118;28;20592;-68
2022/01/24 10:31:25;;;;;;;1.58;1.48;;;22.10;43.10;;;;;;4995034;28;20211;-68
2022/01/24 10:34:06;;;;;;;1.60;1.50;;;22.10;43.10;;;;;;4986059;28;20191;-69
2022/01/24 10:36:54;;;;;;;1.55;1.45;;;22.10;43.30;;;;;;4994959;28;20203;-67
2022/01/24 10:39:32;;;;;;;1.48;1.38;;;22.10;43.10;;;;;;4978990;28;20187;-68
2022/01/24 10:44:55;;;;;;;1.80;1.70;;;22.10;43.10;;;;;;5013972;28;20218;-68
2022/01/24 10:47:29;;;;;;;1.83;1.73;;;22.10;43.10;;;;;;5014449;28;20197;-68
2022/01/24 10:49:57;;;;;;;1.75;1.65;;;22.10;43.10;;;;;;5014846;28;20631;-67
2022/01/24 10:52:30;;;;;;;2.00;1.70;;;22.10;43.10;;;;;;5030834;28;20214;-67
2022/01/24 10:55:26;;;;;;;1.98;1.52;;;22.10;43.80;;;;;;4994250;28;20270;-67
2022/01/24 10:58:18;;;;;;;1.80;1.70;;;22.10;43.70;;;;;;4994797;28;20188;-67
2022/01/24 11:00:46;;;;;;;1.45;1.35;;;22.10;43.70;;;;;;4995051;28;20269;-68
2022/01/24 11:03:19;;;;;;;1.85;1.70;;;22.10;43.60;;;;;;5000144;28;20667;-69
2022/01/24 11:05:46;;;;;;;2.05;1.95;;;22.10;43.40;;;;;;5001696;28;20253;-68
2022/01/24 11:08:17;;;;;;;2.05;1.77;;;22.10;43.40;;;;;;5001917;28;20183;-67
2022/01/24 11:10:51;;;;;;;1.73;1.63;;;22.10;43.30;;;;;;5001898;28;20206;-67
2022/01/24 11:13:24;;;;;;;1.75;1.65;;;22.10;43.30;;;;;;4998575;28;20188;-67
2022/01/24 11:15:58;;;;;;;1.58;1.48;;;22.20;43.40;;;;;;5008306;28;20306;-67
2022/01/24 11:18:25;;;;;;;2.22;1.15;;;22.10;43.30;;;;;;5035593;28;20172;-66
2022/01/24 11:21:01;;;;;;;1.30;1.20;;;22.10;43.30;;;;;;5017861;28;20684;-68
2022/01/24 11:23:29;;;;;;;1.30;1.20;;;22.10;43.30;;;;;;5034360;28;20221;-67
2022/01/24 11:26:01;;;;;;;1.42;1.33;;;22.10;43.30;;;;;;5035192;28;20250;-66
2022/01/24 11:28:27;;;;;;;2.83;1.30;;;22.20;43.40;;;;;;5017847;28;20191;-68
2022/01/24 11:31:34;;;;;;;1.48;1.38;;;22.10;43.30;;;;;;5017858;28;20214;-67
2022/01/24 11:34:30;;;;;;;1.77;1.67;;;22.10;43.30;;;;;;5017364;28;20194;-66
2022/01/24 11:36:58;;;;;;;1.30;1.20;;;22.10;43.30;;;;;;5017519;28;20191;-67
2022/01/24 11:39:24;;;;;;;1.50;1.40;;;22.10;43.30;;;;;;5017752;28;20187;-67
2022/01/24 11:41:50;;;;;;;1.60;1.50;;;22.10;43.30;;;;;;5001136;28;20183;-67
2022/01/24 11:44:19;;;;;;;1.42;1.30;;;22.10;43.30;;;;;;5017167;28;20663;-68
2022/01/24 11:46:49;;;;;;;1.45;1.35;;;22.10;43.30;;;;;;5001014;28;20301;-68
2022/01/24 11:49:36;;;;;;;1.60;1.50;;;22.10;43.30;;;;;;5001356;28;20221;-67
2022/01/24 11:52:13;;;;;;;1.50;1.40;;;22.10;43.30;;;;;;5017170;28;20241;-67
2022/01/24 11:57:17;;;;;;;1.95;1.70;;;22.10;43.30;;;;;;5001601;28;20198;-68
2022/01/24 11:59:45;;;;;;;1.55;1.45;;;22.10;43.30;;;;;;4994151;28;20188;-68
2022/01/24 12:02:15;;;;;;;1.42;1.33;;;22.10;43.30;;;;;;4981139;28;20184;-68
2022/01/24 12:04:52;;;;;;;2.00;1.90;;;22.10;43.30;;;;;;5002855;28;20218;-67
2022/01/24 12:07:32;;;;;;;1.77;1.50;;;22.10;43.30;;;;;;5005669;28;20199;-68
2022/01/24 12:10:23;;;;;;;2.28;1.50;;;22.10;43.30;;;;;;4981390;28;20195;-67
2022/01/24 12:12:51;;;;;;;1.40;1.30;;;22.10;43.30;;;;;;5022742;28;20556;-67
2022/01/24 12:15:38;;;;;;;1.60;1.35;;;22.20;43.40;;;;;;5015941;28;20215;-68
2022/01/24 12:18:16;;;;;;;1.73;1.63;;;22.20;43.40;;;;;;5017284;28;20198;-67
2022/01/24 12:20:42;;;;;;;1.90;1.80;;;22.10;43.30;;;;;;5016967;28;20176;-68
2022/01/24 12:23:17;;;;;;;2.83;1.98;;;22.10;43.30;;;;;;4996960;28;20282;-68
2022/01/24 12:26:05;;;;;;;2.00;1.80;;;22.20;43.40;;;;;;4996767;28;20337;-68
2022/01/24 12:28:42;;;;;;;1.40;1.30;;;22.10;43.30;;;;;;4997239;28;20180;-67
2022/01/24 12:31:44;;;;;;;1.38;1.27;;;22.10;43.30;;;;;;5002690;28;20589;-67
2022/01/24 12:34:16;;;;;;;1.70;1.60;;;22.10;43.30;;;;;;4983836;28;20192;-69
2022/01/24 12:37:00;;;;;;;1.65;1.55;;;22.10;43.30;;;;;;4980280;28;20180;-68
2022/01/24 12:39:52;;;;;;;1.90;1.80;;;22.10;43.30;;;;;;5014357;28;20168;-68
2022/01/24 12:42:37;;;;;;;2.13;1.70;;;22.20;43.40;;;;;;5014218;28;20192;-68
2022/01/24 12:48:17;;;;;;;2.38;1.70;;;22.20;43.40;;;;;;5014083;28;20549;-67
2022/01/24 12:50:48;;;;;;;1.75;1.65;;;22.10;43.30;;;;;;4980431;28;20184;-68
2022/01/24 12:53:16;;;;;;;2.45;2.25;;;22.20;43.40;;;;;;5013910;28;20652;-67
2022/01/24 12:55:44;;;;;;;2.47;2.30;;;22.10;43.30;;;;;;4996336;28;20200;-67
2022/01/24 12:58:11;;;;;;;2.30;1.90;;;22.10;43.30;;;;;;4996523;28;20186;-68
2022/01/24 13:00:41;;;;;;;2.17;2.05;;;22.10;43.30;;;;;;4996572;28;20260;-67
2022/01/24 13:03:06;;;;;;;3.22;2.35;;;22.10;43.30;;;;;;5000959;28;20187;-67
2022/01/24 13:05:38;;;;;;;1.92;1.83;;;22.10;43.30;;;;;;5016111;28;20267;-67
2022/01/24 13:08:04;;;;;;;2.05;1.67;;;22.10;43.30;;;;;;5016014;28;20181;-67
2022/01/24 13:10:31;;;;;;;1.50;1.40;;;22.10;43.30;;;;;;5011519;28;20198;-66
2022/01/24 13:13:07;;;;;;;1.83;1.73;;;22.20;43.40;;;;;;5022017;28;20318;-68
2022/01/24 13:21:24;;;;;;;2.10;2.00;;;22.20;43.40;;;;;;5004158;28;20644;-67
2022/01/24 13:24:00;;;;;;;2.08;1.98;;;22.20;43.40;;;;;;5006249;28;20179;-67
2022/01/24 13:26:26;;;;;;;2.53;2.33;;;22.20;43.40;;;;;;4995177;28;20191;-67
2022/01/24 13:29:05;;;;;;;2.15;1.95;;;22.10;43.30;;;;;;4980053;28;20188;-64
2022/01/24 13:31:30;;;;;;;2.25;1.70;;;22.10;43.30;;;;;;5013313;28;20234;-67
2022/01/24 13:33:57;;;;;;;1.63;1.52;;;22.10;43.30;;;;;;4987756;28;20215;-67
2022/01/24 13:36:23;;;;;;;1.67;1.58;;;22.10;43.30;;;;;;4995349;28;20271;-67
2022/01/24 13:38:51;;;;;;;1.58;1.48;;;22.10;43.30;;;;;;5013262;28;20275;-67
2022/01/24 13:41:23;;;;;;;2.08;1.85;;;22.10;43.30;;;;;;4995711;28;20271;-65
2022/01/24 13:44:04;;;;;;;1.50;1.40;;;22.10;43.30;;;;;;5004403;28;20195;-67
2022/01/24 13:46:41;;;;;;;1.95;1.85;;;22.20;43.40;;;;;;4998030;28;20188;-67
2022/01/24 13:49:15;;;;;;;2.15;2.00;;;22.10;43.30;;;;;;5010994;28;20211;-67
2022/01/24 13:51:51;;;;;;;2.40;2.20;;;22.20;43.40;;;;;;5012182;28;20199;-67
2022/01/24 13:54:28;;;;;;;3.03;2.30;;;22.10;43.30;;;;;;5008148;28;20217;-66
2022/01/24 13:56:57;;;;;;;2.25;2.03;;;22.20;43.40;;;;;;5014141;28;20256;-66
2022/01/24 13:59:26;;;;;;;1.95;1.80;;;22.10;43.30;;;;;;5014268;28;20253;-67
2022/01/24 14:01:59;;;;;;;1.48;1.38;;;22.10;43.30;;;;;;5031704;28;20176;-66
2022/01/24 14:04:50;;;;;;;1.67;1.58;;;22.10;43.30;;;;;;4994101;28;20222;-67
2022/01/24 14:07:21;;;;;;;2.13;1.83;;;22.20;43.40;;;;;;4994439;28;20203;-67
2022/01/24 14:09:53;;;;;;;1.50;1.40;;;22.10;43.30;;;;;;4978599;28;20196;-67
2022/01/24 14:12:23;;;;;;;2.30;2.13;;;22.20;43.40;;;;;;4994446;28;20218;-67
2022/01/24 14:21:07;;;;;;;2.08;1.98;;;22.10;43.30;;;;;;5010856;28;20215;-67
2022/01/24 14:23:35;;;;;;;1.80;1.70;;;22.10;43.30;;;;;;4977871;28;20229;-67
2022/01/24 14:26:46;;;;;;;2.03;1.92;;;22.10;43.30;;;;;;4977881;28;20208;-67
2022/01/24 14:29:17;;;;;;;3.00;2.70;;;22.10;43.30;;;;;;5012265;28;20605;-67
2022/01/24 14:31:45;;;;;;;2.58;2.38;;;22.10;43.30;;;;;;4995110;28;20203;-66
2022/01/24 14:34:18;;;;;;;4.40;4.00;;;22.10;43.30;;;;;;4995990;28;20214;-66
2022/01/24 14:36:55;;;;;;;2.03;1.90;;;22.10;43.40;;;;;;5014986;28;20183;-67
2022/01/24 14:39:23;;;;;;;2.53;2.33;;;22.10;43.30;;;;;;4999399;28;20183;-67
2022/01/24 14:41:50;;;;;;;2.08;1.98;;;22.10;43.40;;;;;;5005983;28;20241;-67
2022/01/24 14:47:06;;;;;;;3.20;2.20;;;22.10;43.30;;;;;;5036182;28;20186;-67
2022/01/24 14:49:40;;;;;;;2.45;2.25;;;22.10;43.30;;;;;;4996609;28;20191;-67
2022/01/24 14:52:12;;;;;;;2.80;2.60;;;22.10;43.30;;;;;;5016318;28;20196;-67
2022/01/24 14:54:39;;;;;;;2.90;2.70;;;22.10;43.30;;;;;;4998619;28;20216;-68
2022/01/24 14:57:09;;;;;;;3.40;3.00;;;22.10;43.30;;;;;;4982667;28;20188;-67
2022/01/24 14:59:38;;;;;;;3.10;2.78;;;22.10;43.30;;;;;;4982532;28;20276;-67
2022/01/24 15:02:04;;;;;;;2.70;2.50;;;22.10;43.30;;;;;;4998596;28;20279;-67
2022/01/24 15:04:30;;;;;;;2.70;2.50;;;22.10;43.40;;;;;;5000320;28;20218;-67
2022/01/24 15:06:56;;;;;;;2.60;2.40;;;22.10;43.40;;;;;;5035752;28;20187;-68
2022/01/24 15:09:27;;;;;;;2.72;2.53;;;22.10;43.40;;;;;;5018036;28;20190;-67
2022/01/24 15:11:57;;;;;;;2.40;2.20;;;22.10;43.40;;;;;;5017984;28;20207;-68
2022/01/24 15:14:34;;;;;;;2.45;2.13;;;22.10;43.50;;;;;;5005896;28;20204;-68
2022/01/24 15:17:20;;;;;;;2.15;2.05;;;22.10;43.50;;;;;;5004596;28;20256;-67